sensor_id;sensor_type;location;lat;lon;timestamp;pressure;altitude;pressure_sealevel;temperature;humidity
65754;BME280;52488;47.502;18.940;2022-12-26T00:00:29;98593.91;;;8.76;86.28
65754;BME280;52488;47.502;18.940;2022-12-26T00:01:34;98592.81;;;8.79;86.29
65754;BME280;52488;47.502;18.940;2022-12-26T00:02:38;98586.94;;;8.83;86.14
65754;BME280;52488;47.502;18.940;2022-12-26T00:03:47;98594.97;;;8.81;86.18
65754;BME280;52488;47.502;18.940;2022-12-26T00:04:50;98588.06;;;8.80;86.14
65754;BME280;52488;47.502;18.940;2022-12-26T00:05:55;98598.66;;;8.76;86.38
65754;BME280;52488;47.502;18.940;2022-12-26T00:06:58;98594.62;;;8.77;86.36
65754;BME280;52488;47.502;18.940;2022-12-26T00:08:02;98592.84;;;8.71;86.41
65754;BME280;52488;47.502;18.940;2022-12-26T00:09:05;98584.47;;;8.69;86.57
65754;BME280;52488;47.502;18.940;2022-12-26T00:10:09;98593.97;;;8.68;86.64
65754;BME280;52488;47.502;18.940;2022-12-26T00:11:13;98593.06;;;8.66;86.69
65754;BME280;52488;47.502;18.940;2022-12-26T00:12:16;98593.06;;;8.66;86.68
65754;BME280;52488;47.502;18.940;2022-12-26T00:13:19;98586.34;;;8.59;86.86
65754;BME280;52488;47.502;18.940;2022-12-26T00:14:42;98589.66;;;8.58;87.03
65754;BME280;52488;47.502;18.940;2022-12-26T00:15:45;98597.72;;;8.56;87.09
65754;BME280;52488;47.502;18.940;2022-12-26T00:16:48;98594.97;;;8.56;87.18
65754;BME280;52488;47.502;18.940;2022-12-26T00:17:51;98604.28;;;8.53;87.17
65754;BME280;52488;47.502;18.940;2022-12-26T00:18:58;98597.87;;;8.58;87.19
65754;BME280;52488;47.502;18.940;2022-12-26T00:20:01;98597.16;;;8.57;87.03
65754;BME280;52488;47.502;18.940;2022-12-26T00:21:05;98589.06;;;8.67;86.95
65754;BME280;52488;47.502;18.940;2022-12-26T00:22:12;98589.22;;;8.69;86.54
65754;BME280;52488;47.502;18.940;2022-12-26T00:23:17;98586.62;;;8.71;86.49
65754;BME280;52488;47.502;18.940;2022-12-26T00:24:20;98588.84;;;8.72;86.45
65754;BME280;52488;47.502;18.940;2022-12-26T00:25:23;98590.72;;;8.62;86.75
65754;BME280;52488;47.502;18.940;2022-12-26T00:26:28;98583.81;;;8.54;87.23
65754;BME280;52488;47.502;18.940;2022-12-26T00:27:31;98582.94;;;8.51;87.41
65754;BME280;52488;47.502;18.940;2022-12-26T00:28:35;98583.31;;;8.48;87.52
65754;BME280;52488;47.502;18.940;2022-12-26T00:29:38;98576.22;;;8.44;87.65
65754;BME280;52488;47.502;18.940;2022-12-26T00:30:41;98586.06;;;8.48;87.64
65754;BME280;52488;47.502;18.940;2022-12-26T00:31:44;98575.66;;;8.46;87.59
65754;BME280;52488;47.502;18.940;2022-12-26T00:32:48;98582.44;;;8.45;87.57
65754;BME280;52488;47.502;18.940;2022-12-26T00:33:51;98574.25;;;8.37;87.60
65754;BME280;52488;47.502;18.940;2022-12-26T00:34:54;98577.16;;;8.32;87.71
65754;BME280;52488;47.502;18.940;2022-12-26T00:36:06;98574.81;;;8.36;87.48
65754;BME280;52488;47.502;18.940;2022-12-26T00:37:10;98576.03;;;8.42;87.68
65754;BME280;52488;47.502;18.940;2022-12-26T00:38:13;98576.97;;;8.45;87.71
65754;BME280;52488;47.502;18.940;2022-12-26T00:39:17;98570.06;;;8.36;87.85
65754;BME280;52488;47.502;18.940;2022-12-26T00:40:20;98572.97;;;8.31;88.27
65754;BME280;52488;47.502;18.940;2022-12-26T00:41:23;98579.59;;;8.28;88.58
65754;BME280;52488;47.502;18.940;2022-12-26T00:42:26;98576.28;;;8.29;88.43
65754;BME280;52488;47.502;18.940;2022-12-26T00:43:29;98583.06;;;8.20;88.53
65754;BME280;52488;47.502;18.940;2022-12-26T00:44:33;98586.00;;;8.15;88.75
65754;BME280;52488;47.502;18.940;2022-12-26T00:45:36;98580.75;;;8.09;88.72
65754;BME280;52488;47.502;18.940;2022-12-26T00:46:39;98585.88;;;8.05;88.78
65754;BME280;52488;47.502;18.940;2022-12-26T00:47:42;98588.78;;;8.07;89.08
65754;BME280;52488;47.502;18.940;2022-12-26T00:48:45;98595.72;;;8.08;89.22
65754;BME280;52488;47.502;18.940;2022-12-26T00:49:48;98589.13;;;8.11;89.26
65754;BME280;52488;47.502;18.940;2022-12-26T00:51:11;98589.34;;;8.06;89.46
65754;BME280;52488;47.502;18.940;2022-12-26T00:52:14;98588.81;;;8.00;89.75
65754;BME280;52488;47.502;18.940;2022-12-26T00:53:18;98580.22;;;8.03;89.86
65754;BME280;52488;47.502;18.940;2022-12-26T00:54:21;98592.28;;;8.00;90.10
65754;BME280;52488;47.502;18.940;2022-12-26T00:55:24;98584.41;;;8.04;90.02
65754;BME280;52488;47.502;18.940;2022-12-26T00:56:27;98599.37;;;8.11;90.06
65754;BME280;52488;47.502;18.940;2022-12-26T00:57:30;98595.16;;;8.10;90.13
65754;BME280;52488;47.502;18.940;2022-12-26T00:58:33;98596.81;;;8.05;90.07
65754;BME280;52488;47.502;18.940;2022-12-26T00:59:36;98593.75;;;8.01;90.31
65754;BME280;52488;47.502;18.940;2022-12-26T01:00:40;98589.72;;;8.02;90.39
65754;BME280;52488;47.502;18.940;2022-12-26T01:01:43;98589.00;;;8.02;90.47
65754;BME280;52488;47.502;18.940;2022-12-26T01:02:47;98584.25;;;8.02;90.46
65754;BME280;52488;47.502;18.940;2022-12-26T01:03:50;98587.69;;;8.03;90.49
65754;BME280;52488;47.502;18.940;2022-12-26T01:04:54;98584.25;;;8.02;90.49
65754;BME280;52488;47.502;18.940;2022-12-26T01:05:57;98582.44;;;7.97;90.62
65754;BME280;52488;47.502;18.940;2022-12-26T01:07:00;98580.44;;;7.98;90.73
65754;BME280;52488;47.502;18.940;2022-12-26T01:08:03;98585.16;;;7.97;90.67
65754;BME280;52488;47.502;18.940;2022-12-26T01:09:23;98588.47;;;7.96;90.88
65754;BME280;52488;47.502;18.940;2022-12-26T01:10:27;98573.34;;;7.94;90.83
65754;BME280;52488;47.502;18.940;2022-12-26T01:11:30;98569.88;;;7.94;91.04
65754;BME280;52488;47.502;18.940;2022-12-26T01:12:42;98577.16;;;7.91;91.26
65754;BME280;52488;47.502;18.940;2022-12-26T01:13:45;98566.59;;;7.88;91.37
65754;BME280;52488;47.502;18.940;2022-12-26T01:14:48;98574.63;;;7.86;91.50
65754;BME280;52488;47.502;18.940;2022-12-26T01:15:52;98575.50;;;7.96;91.28
65754;BME280;52488;47.502;18.940;2022-12-26T01:16:55;98574.06;;;7.95;91.03
65754;BME280;52488;47.502;18.940;2022-12-26T01:17:59;98574.78;;;7.96;91.12
65754;BME280;52488;47.502;18.940;2022-12-26T01:19:03;98573.66;;;7.99;90.86
65754;BME280;52488;47.502;18.940;2022-12-26T01:20:06;98568.75;;;7.97;90.89
65754;BME280;52488;47.502;18.940;2022-12-26T01:21:10;98575.00;;;7.90;91.08
65754;BME280;52488;47.502;18.940;2022-12-26T01:22:13;98569.16;;;7.86;91.26
65754;BME280;52488;47.502;18.940;2022-12-26T01:23:19;98572.47;;;7.84;91.42
65754;BME280;52488;47.502;18.940;2022-12-26T01:24:22;98573.34;;;7.87;91.44
65754;BME280;52488;47.502;18.940;2022-12-26T01:25:25;98571.34;;;7.87;91.47
65754;BME280;52488;47.502;18.940;2022-12-26T01:26:28;98576.06;;;7.94;91.46
65754;BME280;52488;47.502;18.940;2022-12-26T01:27:31;98574.59;;;8.01;91.40
65754;BME280;52488;47.502;18.940;2022-12-26T01:28:34;98572.72;;;8.11;91.58
65754;BME280;52488;47.502;18.940;2022-12-26T01:29:38;98569.41;;;8.13;91.78
65754;BME280;52488;47.502;18.940;2022-12-26T01:30:41;98564.69;;;8.13;91.78
65754;BME280;52488;47.502;18.940;2022-12-26T01:31:44;98562.88;;;8.08;91.97
65754;BME280;52488;47.502;18.940;2022-12-26T01:32:48;98559.56;;;8.10;92.05
65754;BME280;52488;47.502;18.940;2022-12-26T01:33:51;98565.44;;;8.06;92.11
65754;BME280;52488;47.502;18.940;2022-12-26T01:34:54;98566.63;;;8.20;92.00
65754;BME280;52488;47.502;18.940;2022-12-26T01:35:58;98567.94;;;8.19;91.69
65754;BME280;52488;47.502;18.940;2022-12-26T01:37:01;98564.69;;;8.13;91.90
65754;BME280;52488;47.502;18.940;2022-12-26T01:38:04;98549.69;;;8.14;92.01
65754;BME280;52488;47.502;18.940;2022-12-26T01:39:07;98569.22;;;8.18;91.97
65754;BME280;52488;47.502;18.940;2022-12-26T01:40:11;98552.63;;;8.16;91.90
65754;BME280;52488;47.502;18.940;2022-12-26T01:41:14;98555.38;;;8.16;91.89
65754;BME280;52488;47.502;18.940;2022-12-26T01:42:25;98557.75;;;8.12;91.91
65754;BME280;52488;47.502;18.940;2022-12-26T01:46:31;98557.69;;;8.20;91.64
65754;BME280;52488;47.502;18.940;2022-12-26T01:47:39;98551.13;;;8.23;91.39
65754;BME280;52488;47.502;18.940;2022-12-26T01:48:45;98547.47;;;8.20;91.50
65754;BME280;52488;47.502;18.940;2022-12-26T01:49:52;98548.19;;;8.29;91.23
65754;BME280;52488;47.502;18.940;2022-12-26T01:50:59;98546.94;;;8.22;91.35
65754;BME280;52488;47.502;18.940;2022-12-26T01:52:07;98551.84;;;8.24;91.44
65754;BME280;52488;47.502;18.940;2022-12-26T01:53:17;98550.44;;;8.15;91.70
65754;BME280;52488;47.502;18.940;2022-12-26T01:54:24;98550.09;;;8.11;91.96
65754;BME280;52488;47.502;18.940;2022-12-26T01:55:48;98537.66;;;8.17;91.95
65754;BME280;52488;47.502;18.940;2022-12-26T01:56:54;98529.19;;;8.31;91.78
65754;BME280;52488;47.502;18.940;2022-12-26T01:58:06;98530.81;;;8.34;91.37
65754;BME280;52488;47.502;18.940;2022-12-26T01:59:17;98539.78;;;8.27;91.59
65754;BME280;52488;47.502;18.940;2022-12-26T02:00:21;98533.25;;;8.22;91.72
65754;BME280;52488;47.502;18.940;2022-12-26T02:01:27;98535.09;;;8.19;91.95
65754;BME280;52488;47.502;18.940;2022-12-26T02:02:34;98537.31;;;8.13;92.24
65754;BME280;52488;47.502;18.940;2022-12-26T02:03:59;98539.88;;;8.11;92.43
65754;BME280;52488;47.502;18.940;2022-12-26T02:05:27;98536.63;;;8.05;92.41
65754;BME280;52488;47.502;18.940;2022-12-26T02:06:37;98535.56;;;8.01;92.52
65754;BME280;52488;47.502;18.940;2022-12-26T02:07:44;98537.56;;;8.00;92.58
65754;BME280;52488;47.502;18.940;2022-12-26T02:08:48;98542.84;;;7.98;92.47
65754;BME280;52488;47.502;18.940;2022-12-26T02:09:51;98534.62;;;7.98;92.45
65754;BME280;52488;47.502;18.940;2022-12-26T02:11:12;98531.38;;;8.00;92.47
65754;BME280;52488;47.502;18.940;2022-12-26T02:12:28;98534.12;;;7.92;92.50
65754;BME280;52488;47.502;18.940;2022-12-26T02:13:40;98537.37;;;7.98;92.31
65754;BME280;52488;47.502;18.940;2022-12-26T02:14:43;98540.00;;;7.88;92.50
65754;BME280;52488;47.502;18.940;2022-12-26T02:15:47;98535.97;;;7.82;92.50
65754;BME280;52488;47.502;18.940;2022-12-26T02:16:50;98533.62;;;7.78;92.64
65754;BME280;52488;47.502;18.940;2022-12-26T02:17:53;98532.00;;;7.75;92.85
65754;BME280;52488;47.502;18.940;2022-12-26T02:18:56;98543.31;;;7.72;93.00
65754;BME280;52488;47.502;18.940;2022-12-26T02:22:54;98538.25;;;7.60;93.00
65754;BME280;52488;47.502;18.940;2022-12-26T02:25:29;98538.06;;;7.58;93.44
65754;BME280;52488;47.502;18.940;2022-12-26T02:31:11;98537.91;;;7.49;93.71
65754;BME280;52488;47.502;18.940;2022-12-26T02:35:08;98523.37;;;7.38;93.68
65754;BME280;52488;47.502;18.940;2022-12-26T02:37:22;98522.66;;;7.30;93.53
65754;BME280;52488;47.502;18.940;2022-12-26T02:41:27;98503.34;;;7.28;93.55
65754;BME280;52488;47.502;18.940;2022-12-26T02:46:12;98501.34;;;7.21;93.86
65754;BME280;52488;47.502;18.940;2022-12-26T02:47:35;98504.47;;;7.18;93.90
65754;BME280;52488;47.502;18.940;2022-12-26T02:48:54;98497.91;;;7.13;94.48
65754;BME280;52488;47.502;18.940;2022-12-26T02:54:42;98511.75;;;7.23;95.23
65754;BME280;52488;47.502;18.940;2022-12-26T02:56:14;98512.28;;;7.21;95.46
65754;BME280;52488;47.502;18.940;2022-12-26T02:57:58;98514.09;;;7.26;95.49
65754;BME280;52488;47.502;18.940;2022-12-26T02:59:36;98507.16;;;7.25;95.70
65754;BME280;52488;47.502;18.940;2022-12-26T03:01:03;98500.41;;;7.26;95.98
65754;BME280;52488;47.502;18.940;2022-12-26T03:02:36;98499.91;;;7.28;96.15
65754;BME280;52488;47.502;18.940;2022-12-26T03:04:00;98488.94;;;7.35;95.88
65754;BME280;52488;47.502;18.940;2022-12-26T03:05:51;98490.38;;;7.36;95.92
65754;BME280;52488;47.502;18.940;2022-12-26T03:07:22;98507.34;;;7.35;96.03
65754;BME280;52488;47.502;18.940;2022-12-26T03:10:19;98500.97;;;7.25;96.16
65754;BME280;52488;47.502;18.940;2022-12-26T03:11:47;98506.63;;;7.27;96.19
65754;BME280;52488;47.502;18.940;2022-12-26T03:13:19;98507.72;;;7.24;96.38
65754;BME280;52488;47.502;18.940;2022-12-26T03:14:42;98502.62;;;7.28;96.30
65754;BME280;52488;47.502;18.940;2022-12-26T03:15:52;98506.09;;;7.28;96.32
65754;BME280;52488;47.502;18.940;2022-12-26T03:18:54;98499.91;;;7.28;96.44
65754;BME280;52488;47.502;18.940;2022-12-26T03:20:10;98494.22;;;7.26;96.54
65754;BME280;52488;47.502;18.940;2022-12-26T03:21:17;98498.81;;;7.23;96.65
65754;BME280;52488;47.502;18.940;2022-12-26T03:23:43;98499.34;;;7.22;96.61
65754;BME280;52488;47.502;18.940;2022-12-26T03:24:48;98501.91;;;7.20;96.59
65754;BME280;52488;47.502;18.940;2022-12-26T03:26:16;98504.47;;;7.18;96.75
65754;BME280;52488;47.502;18.940;2022-12-26T03:27:38;98510.66;;;7.18;96.79
65754;BME280;52488;47.502;18.940;2022-12-26T03:28:42;98509.91;;;7.25;96.69
65754;BME280;52488;47.502;18.940;2022-12-26T03:29:45;98510.81;;;7.28;96.72
65754;BME280;52488;47.502;18.940;2022-12-26T03:31:10;98499.69;;;7.26;96.87
65754;BME280;52488;47.502;18.940;2022-12-26T03:32:14;98500.63;;;7.28;96.99
65754;BME280;52488;47.502;18.940;2022-12-26T03:33:22;98494.22;;;7.26;97.06
65754;BME280;52488;47.502;18.940;2022-12-26T03:34:44;98499.91;;;7.28;97.12
65754;BME280;52488;47.502;18.940;2022-12-26T03:35:47;98491.50;;;7.26;97.13
65754;BME280;52488;47.502;18.940;2022-12-26T03:38:11;98507.72;;;7.24;97.27
65754;BME280;52488;47.502;18.940;2022-12-26T03:40:34;98503.53;;;7.23;97.15
65754;BME280;52488;47.502;18.940;2022-12-26T03:41:54;98517.94;;;7.15;96.94
65754;BME280;52488;47.502;18.940;2022-12-26T03:45:30;98524.69;;;7.07;96.54
65754;BME280;52488;47.502;18.940;2022-12-26T03:48:32;98513.22;;;6.93;96.36
65754;BME280;52488;47.502;18.940;2022-12-26T03:50:02;98514.31;;;6.82;96.32
65754;BME280;52488;47.502;18.940;2022-12-26T03:51:30;98518.34;;;6.74;96.30
65754;BME280;52488;47.502;18.940;2022-12-26T03:53:02;98511.41;;;6.65;96.35
65754;BME280;52488;47.502;18.940;2022-12-26T03:54:44;98519.78;;;6.67;96.36
65754;BME280;52488;47.502;18.940;2022-12-26T03:56:13;98519.41;;;6.63;96.30
65754;BME280;52488;47.502;18.940;2022-12-26T03:57:48;98519.44;;;6.55;96.30
65754;BME280;52488;47.502;18.940;2022-12-26T03:59:23;98515.03;;;6.52;96.41
65754;BME280;52488;47.502;18.940;2022-12-26T04:00:47;98518.28;;;6.43;96.43
65754;BME280;52488;47.502;18.940;2022-12-26T04:02:12;98515.94;;;6.40;96.79
65754;BME280;52488;47.502;18.940;2022-12-26T04:03:38;98524.47;;;6.44;96.77
65754;BME280;52488;47.502;18.940;2022-12-26T04:05:06;98532.66;;;6.36;96.98
65754;BME280;52488;47.502;18.940;2022-12-26T04:06:36;98535.94;;;6.34;97.24
65754;BME280;52488;47.502;18.940;2022-12-26T04:08:12;98535.00;;;6.32;97.26
65754;BME280;52488;47.502;18.940;2022-12-26T04:09:45;98535.75;;;6.32;97.29
65754;BME280;52488;47.502;18.940;2022-12-26T04:11:13;98536.28;;;6.31;97.17
65754;BME280;52488;47.502;18.940;2022-12-26T04:12:38;98533.72;;;6.25;97.29
65754;BME280;52488;47.502;18.940;2022-12-26T04:14:06;98533.00;;;6.25;97.36
65754;BME280;52488;47.502;18.940;2022-12-26T04:18:57;98536.63;;;6.12;97.20
65754;BME280;52488;47.502;18.940;2022-12-26T04:20:40;98531.84;;;6.05;97.40
65754;BME280;52488;47.502;18.940;2022-12-26T04:21:46;98526.94;;;6.03;97.46
65754;BME280;52488;47.502;18.940;2022-12-26T04:23:20;98534.22;;;6.01;97.58
65754;BME280;52488;47.502;18.940;2022-12-26T04:24:55;98519.84;;;6.00;97.65
65754;BME280;52488;47.502;18.940;2022-12-26T04:26:27;98530.22;;;6.02;97.68
65754;BME280;52488;47.502;18.940;2022-12-26T04:27:50;98521.53;;;6.11;97.91
65754;BME280;52488;47.502;18.940;2022-12-26T04:29:12;98527.16;;;6.13;98.41
65754;BME280;52488;47.502;18.940;2022-12-26T04:30:34;98530.22;;;6.09;98.86
65754;BME280;52488;47.502;18.940;2022-12-26T04:32:11;98534.22;;;6.08;99.03
65754;BME280;52488;47.502;18.940;2022-12-26T04:33:56;98534.97;;;6.09;99.01
65754;BME280;52488;47.502;18.940;2022-12-26T04:35:41;98528.44;;;6.12;99.11
65754;BME280;52488;47.502;18.940;2022-12-26T04:37:12;98530.63;;;6.21;99.25
65754;BME280;52488;47.502;18.940;2022-12-26T04:38:50;98531.03;;;6.33;99.49
65754;BME280;52488;47.502;18.940;2022-12-26T04:40:18;98522.69;;;6.39;99.40
65754;BME280;52488;47.502;18.940;2022-12-26T04:41:41;98526.66;;;6.38;99.60
65754;BME280;52488;47.502;18.940;2022-12-26T04:43:05;98528.50;;;6.50;99.69
65754;BME280;52488;47.502;18.940;2022-12-26T04:44:49;98528.34;;;6.56;99.75
65754;BME280;52488;47.502;18.940;2022-12-26T04:45:58;98518.31;;;6.58;100.00
65754;BME280;52488;47.502;18.940;2022-12-26T04:47:02;98528.16;;;6.61;100.00
65754;BME280;52488;47.502;18.940;2022-12-26T04:48:05;98505.03;;;6.70;100.00
65754;BME280;52488;47.502;18.940;2022-12-26T04:49:27;98505.59;;;6.84;99.91
65754;BME280;52488;47.502;18.940;2022-12-26T04:50:50;98504.16;;;6.83;99.98
65754;BME280;52488;47.502;18.940;2022-12-26T04:51:58;98504.31;;;6.77;100.00
65754;BME280;52488;47.502;18.940;2022-12-26T04:53:05;98511.25;;;6.78;100.00
65754;BME280;52488;47.502;18.940;2022-12-26T04:54:08;98512.31;;;6.75;100.00
65754;BME280;52488;47.502;18.940;2022-12-26T04:55:12;98507.78;;;6.78;100.00
65754;BME280;52488;47.502;18.940;2022-12-26T04:56:15;98512.13;;;6.81;100.00
65754;BME280;52488;47.502;18.940;2022-12-26T04:57:19;98505.94;;;6.80;100.00
65754;BME280;52488;47.502;18.940;2022-12-26T04:58:22;98518.72;;;6.78;100.00
65754;BME280;52488;47.502;18.940;2022-12-26T04:59:26;98511.75;;;6.77;100.00
65754;BME280;52488;47.502;18.940;2022-12-26T05:00:29;98504.69;;;6.74;100.00
65754;BME280;52488;47.502;18.940;2022-12-26T05:01:32;98511.44;;;6.73;100.00
65754;BME280;52488;47.502;18.940;2022-12-26T05:02:54;98515.22;;;6.70;100.00
65754;BME280;52488;47.502;18.940;2022-12-26T05:04:21;98517.59;;;6.73;100.00
65754;BME280;52488;47.502;18.940;2022-12-26T05:05:48;98508.69;;;6.73;100.00
65754;BME280;52488;47.502;18.940;2022-12-26T05:07:24;98515.06;;;6.75;100.00
65754;BME280;52488;47.502;18.940;2022-12-26T05:08:48;98512.16;;;6.73;100.00
65754;BME280;52488;47.502;18.940;2022-12-26T05:10:35;98509.22;;;6.71;100.00
65754;BME280;52488;47.502;18.940;2022-12-26T05:11:39;98522.53;;;6.67;100.00
65754;BME280;52488;47.502;18.940;2022-12-26T05:12:42;98525.25;;;6.67;100.00
65754;BME280;52488;47.502;18.940;2022-12-26T05:13:45;98520.50;;;6.75;100.00
65754;BME280;52488;47.502;18.940;2022-12-26T05:14:49;98517.78;;;6.83;100.00
65754;BME280;52488;47.502;18.940;2022-12-26T05:15:52;98524.69;;;6.76;100.00
65754;BME280;52488;47.502;18.940;2022-12-26T05:17:13;98518.88;;;6.80;100.00
65754;BME280;52488;47.502;18.940;2022-12-26T05:18:35;98519.25;;;6.84;100.00
65754;BME280;52488;47.502;18.940;2022-12-26T05:19:56;98514.87;;;6.81;100.00
65754;BME280;52488;47.502;18.940;2022-12-26T05:21:19;98515.59;;;6.81;100.00
65754;BME280;52488;47.502;18.940;2022-12-26T05:22:40;98505.22;;;6.80;100.00
65754;BME280;52488;47.502;18.940;2022-12-26T05:24:04;98503.75;;;6.86;100.00
65754;BME280;52488;47.502;18.940;2022-12-26T05:25:29;98505.94;;;6.88;100.00
65754;BME280;52488;47.502;18.940;2022-12-26T05:26:54;98510.31;;;6.91;100.00
65754;BME280;52488;47.502;18.940;2022-12-26T05:28:16;98510.50;;;6.93;100.00
65754;BME280;52488;47.502;18.940;2022-12-26T05:29:39;98514.87;;;6.88;100.00
65754;BME280;52488;47.502;18.940;2022-12-26T05:30:46;98511.75;;;6.92;100.00
65754;BME280;52488;47.502;18.940;2022-12-26T05:31:49;98513.22;;;6.93;100.00
65754;BME280;52488;47.502;18.940;2022-12-26T05:32:53;98511.59;;;6.90;100.00
65754;BME280;52488;47.502;18.940;2022-12-26T05:34:14;98505.22;;;6.95;100.00
65754;BME280;52488;47.502;18.940;2022-12-26T05:35:22;98500.84;;;7.07;100.00
65754;BME280;52488;47.502;18.940;2022-12-26T05:36:30;98499.00;;;7.02;100.00
65754;BME280;52488;47.502;18.940;2022-12-26T05:37:35;98503.75;;;7.02;100.00
65754;BME280;52488;47.502;18.940;2022-12-26T05:38:38;98501.38;;;6.98;100.00
65754;BME280;52488;47.502;18.940;2022-12-26T05:39:41;98501.22;;;6.96;100.00
65754;BME280;52488;47.502;18.940;2022-12-26T05:40:44;98502.50;;;6.95;100.00
65754;BME280;52488;47.502;18.940;2022-12-26T05:41:48;98505.22;;;6.95;100.00
65754;BME280;52488;47.502;18.940;2022-12-26T05:42:51;98509.22;;;6.94;100.00
65754;BME280;52488;47.502;18.940;2022-12-26T05:43:54;98504.84;;;6.91;100.00
65754;BME280;52488;47.502;18.940;2022-12-26T05:44:57;98503.41;;;6.90;100.00
65754;BME280;52488;47.502;18.940;2022-12-26T05:46:00;98507.41;;;6.89;100.00
65754;BME280;52488;47.502;18.940;2022-12-26T05:47:04;98501.22;;;6.88;100.00
65754;BME280;52488;47.502;18.940;2022-12-26T05:48:07;98505.59;;;6.84;100.00
65754;BME280;52488;47.502;18.940;2022-12-26T05:49:10;98504.50;;;6.79;100.00
65754;BME280;52488;47.502;18.940;2022-12-26T05:50:13;98506.31;;;6.77;100.00
65754;BME280;52488;47.502;18.940;2022-12-26T05:51:16;98503.97;;;6.73;100.00
65754;BME280;52488;47.502;18.940;2022-12-26T05:52:19;98502.31;;;6.70;100.00
65754;BME280;52488;47.502;18.940;2022-12-26T05:53:22;98502.31;;;6.70;100.00
65754;BME280;52488;47.502;18.940;2022-12-26T05:54:25;98493.94;;;6.68;100.00
65754;BME280;52488;47.502;18.940;2022-12-26T05:55:28;98506.66;;;6.66;100.00
65754;BME280;52488;47.502;18.940;2022-12-26T05:56:31;98513.78;;;6.61;100.00
65754;BME280;52488;47.502;18.940;2022-12-26T05:57:34;98519.44;;;6.55;100.00
65754;BME280;52488;47.502;18.940;2022-12-26T05:58:38;98517.41;;;6.56;100.00
65754;BME280;52488;47.502;18.940;2022-12-26T05:59:41;98518.31;;;6.51;100.00
65754;BME280;52488;47.502;18.940;2022-12-26T06:00:44;98521.94;;;6.46;100.00
65754;BME280;52488;47.502;18.940;2022-12-26T06:01:47;98519.78;;;6.44;100.00
65754;BME280;52488;47.502;18.940;2022-12-26T06:02:50;98514.31;;;6.44;100.00
65754;BME280;52488;47.502;18.940;2022-12-26T06:03:55;98509.22;;;6.48;100.00
65754;BME280;52488;47.502;18.940;2022-12-26T06:05:03;98506.81;;;6.37;100.00
65754;BME280;52488;47.502;18.940;2022-12-26T06:06:06;98508.09;;;6.28;100.00
65754;BME280;52488;47.502;18.940;2022-12-26T06:07:09;98512.25;;;6.22;100.00
65754;BME280;52488;47.502;18.940;2022-12-26T06:08:13;98507.91;;;6.19;100.00
65754;BME280;52488;47.502;18.940;2022-12-26T06:09:16;98506.44;;;6.18;100.00
65754;BME280;52488;47.502;18.940;2022-12-26T06:10:19;98499.00;;;6.18;100.00
65754;BME280;52488;47.502;18.940;2022-12-26T06:11:23;98503.72;;;6.18;100.00
65754;BME280;52488;47.502;18.940;2022-12-26T06:12:28;98498.25;;;6.18;100.00
65754;BME280;52488;47.502;18.940;2022-12-26T06:13:31;98505.53;;;6.23;100.00
65754;BME280;52488;47.502;18.940;2022-12-26T06:14:34;98508.28;;;6.23;100.00
65754;BME280;52488;47.502;18.940;2022-12-26T06:15:37;98498.09;;;6.23;100.00
65754;BME280;52488;47.502;18.940;2022-12-26T06:16:41;98496.09;;;6.24;100.00
65754;BME280;52488;47.502;18.940;2022-12-26T06:17:44;98495.53;;;6.25;100.00
65754;BME280;52488;47.502;18.940;2022-12-26T06:18:47;98497.91;;;6.29;100.00
65754;BME280;52488;47.502;18.940;2022-12-26T06:19:51;98491.91;;;6.38;100.00
65754;BME280;52488;47.502;18.940;2022-12-26T06:20:54;98495.38;;;6.39;100.00
65754;BME280;52488;47.502;18.940;2022-12-26T06:21:57;98487.56;;;6.35;100.00
65754;BME280;52488;47.502;18.940;2022-12-26T06:23:00;98489.91;;;6.31;100.00
65754;BME280;52488;47.502;18.940;2022-12-26T06:24:03;98495.00;;;6.27;100.00
65754;BME280;52488;47.502;18.940;2022-12-26T06:25:07;98493.75;;;6.28;100.00
65754;BME280;52488;47.502;18.940;2022-12-26T06:26:11;98492.25;;;6.27;100.00
65754;BME280;52488;47.502;18.940;2022-12-26T06:27:14;98492.81;;;6.25;100.00
65754;BME280;52488;47.502;18.940;2022-12-26T06:28:17;98495.38;;;6.23;100.00
65754;BME280;52488;47.502;18.940;2022-12-26T06:29:21;98491.34;;;6.24;100.00
65754;BME280;52488;47.502;18.940;2022-12-26T06:30:24;98492.47;;;6.29;100.00
65754;BME280;52488;47.502;18.940;2022-12-26T06:31:27;98498.81;;;6.31;100.00
65754;BME280;52488;47.502;18.940;2022-12-26T06:32:30;98494.81;;;6.32;100.00
65754;BME280;52488;47.502;18.940;2022-12-26T06:33:40;98503.38;;;6.29;100.00
65754;BME280;52488;47.502;18.940;2022-12-26T06:34:47;98504.28;;;6.24;100.00
65754;BME280;52488;47.502;18.940;2022-12-26T06:35:50;98502.81;;;6.23;100.00
65754;BME280;52488;47.502;18.940;2022-12-26T06:36:53;98501.00;;;6.18;100.00
65754;BME280;52488;47.502;18.940;2022-12-26T06:37:57;98504.25;;;6.16;100.00
65754;BME280;52488;47.502;18.940;2022-12-26T06:39:00;98501.88;;;6.13;100.00
65754;BME280;52488;47.502;18.940;2022-12-26T06:40:03;98500.44;;;6.12;100.00
65754;BME280;52488;47.502;18.940;2022-12-26T06:41:09;98495.69;;;6.12;100.00
65754;BME280;52488;47.502;18.940;2022-12-26T06:42:15;98498.22;;;6.10;100.00
65754;BME280;52488;47.502;18.940;2022-12-26T06:43:18;98499.13;;;6.05;100.00
65754;BME280;52488;47.502;18.940;2022-12-26T06:44:22;98499.28;;;5.99;100.00
65754;BME280;52488;47.502;18.940;2022-12-26T06:45:25;98495.66;;;5.97;100.00
65754;BME280;52488;47.502;18.940;2022-12-26T06:46:28;98488.75;;;5.96;100.00
65754;BME280;52488;47.502;18.940;2022-12-26T06:47:31;98491.09;;;5.92;100.00
65754;BME280;52488;47.502;18.940;2022-12-26T06:48:34;98495.06;;;5.91;100.00
65754;BME280;52488;47.502;18.940;2022-12-26T06:49:43;98496.53;;;5.92;100.00
65754;BME280;52488;47.502;18.940;2022-12-26T06:50:46;98498.34;;;5.89;100.00
65754;BME280;52488;47.502;18.940;2022-12-26T06:51:49;98499.41;;;5.86;100.00
65754;BME280;52488;47.502;18.940;2022-12-26T06:52:52;98499.41;;;5.86;100.00
65754;BME280;52488;47.502;18.940;2022-12-26T06:53:55;98496.31;;;5.82;100.00